Time;durP1;ratioP1;P1;durP2;ratioP2;P2;SDS_P1;SDS_P2;PMS_P1;PMS_P2;Temp;Humidity;BMP_temperature;BMP_pressure;BME280_temperature;BME280_humidity;BME280_pressure;Samples;Min_cycle;Max_cycle;Signal;HPM_P1;HPM_P2
2023/09/04 00:00:41;;;;;;;4.13;2.80;;;;;;;;;;5088989;28;20040;-65
2023/09/04 00:03:07;;;;;;;3.25;2.90;;;;;;;;;;5089041;28;20044;-65
2023/09/04 00:05:34;;;;;;;4.03;3.10;;;;;;;;;;5090402;28;20044;-65
2023/09/04 00:08:00;;;;;;;4.10;3.20;;;;;;;;;;5089136;28;20055;-65
2023/09/04 00:10:26;;;;;;;3.03;2.70;;;;;;;;;;5090717;28;20047;-65
2023/09/04 00:12:52;;;;;;;4.50;2.83;;;;;;;;;;5088243;28;20105;-65
2023/09/04 00:15:18;;;;;;;3.30;3.00;;;;;;;;;;5089398;28;20491;-65
2023/09/04 00:17:48;;;;;;;2.97;2.53;;;;;;;;;;5090320;28;20039;-65
2023/09/04 00:20:14;;;;;;;3.42;3.13;;;;;;;;;;5089984;28;20084;-65
2023/09/04 00:22:40;;;;;;;5.20;2.90;;;;;;;;;;5090251;28;20032;-65
2023/09/04 00:25:06;;;;;;;3.20;2.60;;;;;;;;;;5090234;28;20390;-65
2023/09/04 00:27:32;;;;;;;3.92;2.88;;;;;;;;;;5088552;28;20051;-65
2023/09/04 00:29:58;;;;;;;4.70;2.70;;;;;;;;;;5089622;28;20546;-65
2023/09/04 00:32:24;;;;;;;3.65;2.50;;;;;;;;;;5088895;28;20052;-65
2023/09/04 00:34:50;;;;;;;2.75;2.55;;;;;;;;;;5089590;28;20044;-65
2023/09/04 00:37:16;;;;;;;3.38;2.15;;;;;;;;;;5088871;28;20493;-65
2023/09/04 00:39:42;;;;;;;2.40;2.20;;;;;;;;;;5088740;28;20297;-65
2023/09/04 00:42:10;;;;;;;2.75;2.53;;;;;;;;;;5090153;28;20097;-65
2023/09/04 00:44:36;;;;;;;3.33;2.05;;;;;;;;;;5088380;28;20048;-65
2023/09/04 00:47:02;;;;;;;2.45;2.25;;;;;;;;;;5090437;28;20048;-65
2023/09/04 00:49:29;;;;;;;2.50;2.30;;;;;;;;;;5089511;28;20043;-65
2023/09/04 00:51:55;;;;;;;2.40;2.20;;;;;;;;;;5088477;28;20051;-65
2023/09/04 00:54:22;;;;;;;3.15;2.28;;;;;;;;;;5070094;28;20045;-65
2023/09/04 00:56:51;;;;;;;2.33;2.13;;;;;;;;;;5073596;28;20489;-65
2023/09/04 00:59:17;;;;;;;2.67;2.13;;;;;;;;;;5090600;28;20101;-65
2023/09/04 01:01:43;;;;;;;3.63;1.90;;;;;;;;;;5093658;28;20036;-65
2023/09/04 01:04:09;;;;;;;2.05;1.85;;;;;;;;;;5093948;28;20081;-65
2023/09/04 01:06:35;;;;;;;3.15;2.38;;;;;;;;;;5092232;28;20415;-65
2023/09/04 01:09:01;;;;;;;2.45;2.00;;;;;;;;;;5092984;28;20040;-65
2023/09/04 01:11:27;;;;;;;2.22;2.03;;;;;;;;;;5093177;28;20040;-65
2023/09/04 01:13:54;;;;;;;2.20;2.00;;;;;;;;;;5093765;28;20039;-65
2023/09/04 01:16:21;;;;;;;2.17;1.98;;;;;;;;;;5092443;28;20075;-65
2023/09/04 01:18:47;;;;;;;2.25;2.05;;;;;;;;;;5091635;28;20127;-65
2023/09/04 01:21:13;;;;;;;2.33;1.90;;;;;;;;;;5093832;28;20044;-65
2023/09/04 01:23:39;;;;;;;2.00;1.80;;;;;;;;;;5089774;28;20063;-65
2023/09/04 01:26:05;;;;;;;1.95;1.80;;;;;;;;;;5073077;28;20045;-65
2023/09/04 01:28:40;;;;;;;2.50;2.30;;;;;;;;;;5084926;28;20153;-65
2023/09/04 01:31:24;;;;;;;2.70;1.90;;;;;;;;;;5093273;28;20054;-65
2023/09/04 01:33:56;;;;;;;2.00;1.83;;;;;;;;;;5092901;28;20068;-65
2023/09/04 01:36:23;;;;;;;2.45;1.98;;;;;;;;;;5091596;28;20076;-65
2023/09/04 01:38:50;;;;;;;2.97;1.55;;;;;;;;;;5074326;28;20045;-65
2023/09/04 01:41:17;;;;;;;2.22;1.30;;;;;;;;;;5078126;28;20047;-65
2023/09/04 01:43:43;;;;;;;2.53;1.55;;;;;;;;;;5093641;28;20050;-65
2023/09/04 01:46:09;;;;;;;1.38;1.27;;;;;;;;;;5084934;28;20115;-65
2023/09/04 01:48:35;;;;;;;1.30;1.20;;;;;;;;;;5072899;28;20048;-65
2023/09/04 01:51:01;;;;;;;1.30;1.20;;;;;;;;;;5087214;28;20448;-65
2023/09/04 01:53:27;;;;;;;1.70;1.40;;;;;;;;;;5078295;28;20119;-65
2023/09/04 01:55:53;;;;;;;1.50;1.40;;;;;;;;;;5088952;28;20051;-65
2023/09/04 01:58:19;;;;;;;1.58;1.48;;;;;;;;;;5092570;28;20036;-65
2023/09/04 02:00:47;;;;;;;2.03;1.60;;;;;;;;;;5091698;28;20044;-65
2023/09/04 02:03:13;;;;;;;1.98;1.73;;;;;;;;;;5092373;28;20039;-65
2023/09/04 02:05:39;;;;;;;2.63;1.88;;;;;;;;;;5091623;28;20051;-65
2023/09/04 02:08:07;;;;;;;2.58;1.90;;;;;;;;;;5092621;28;20438;-65
2023/09/04 02:10:36;;;;;;;2.63;2.28;;;;;;;;;;5092419;28;20048;-65
2023/09/04 02:13:02;;;;;;;2.10;1.90;;;;;;;;;;5090589;28;20051;-65
2023/09/04 02:15:29;;;;;;;2.17;1.98;;;;;;;;;;5092817;28;20517;-65
2023/09/04 02:17:55;;;;;;;2.58;2.03;;;;;;;;;;5092067;28;20452;-65
2023/09/04 02:20:21;;;;;;;2.75;1.90;;;;;;;;;;5091172;28;20427;-65
2023/09/04 02:22:47;;;;;;;2.83;2.05;;;;;;;;;;5093040;28;20032;-65
2023/09/04 02:25:14;;;;;;;2.72;1.92;;;;;;;;;;5088004;28;20446;-65
2023/09/04 02:27:40;;;;;;;2.33;2.13;;;;;;;;;;5071263;28;20049;-65
2023/09/04 02:30:08;;;;;;;2.30;2.03;;;;;;;;;;5078217;28;20063;-65
2023/09/04 02:32:34;;;;;;;4.57;2.10;;;;;;;;;;5090639;28;20422;-65
2023/09/04 02:35:00;;;;;;;2.80;2.42;;;;;;;;;;5092016;28;20047;-65
2023/09/04 02:37:27;;;;;;;2.90;2.70;;;;;;;;;;5092597;28;20036;-65
2023/09/04 02:39:53;;;;;;;3.25;2.40;;;;;;;;;;5090186;28;20036;-65
2023/09/04 02:42:19;;;;;;;2.58;2.38;;;;;;;;;;5092101;28;20469;-65
2023/09/04 02:44:45;;;;;;;2.92;2.60;;;;;;;;;;5075489;28;20449;-65
2023/09/04 02:47:11;;;;;;;2.80;2.53;;;;;;;;;;5074062;28;20059;-65
2023/09/04 02:49:37;;;;;;;3.95;2.20;;;;;;;;;;5092326;28;20047;-65
2023/09/04 02:52:03;;;;;;;3.08;2.53;;;;;;;;;;5089531;28;20086;-65
2023/09/04 02:54:29;;;;;;;2.88;2.60;;;;;;;;;;5071587;28;20098;-65
2023/09/04 02:56:55;;;;;;;4.60;2.80;;;;;;;;;;5081553;28;20036;-65
2023/09/04 02:59:21;;;;;;;4.40;2.63;;;;;;;;;;5091953;28;20119;-65
2023/09/04 03:01:50;;;;;;;2.80;2.60;;;;;;;;;;5089882;28;20143;-65
2023/09/04 03:04:17;;;;;;;3.33;2.85;;;;;;;;;;5090555;28;20444;-65
2023/09/04 03:06:43;;;;;;;4.80;3.47;;;;;;;;;;5091705;28;20044;-65
2023/09/04 03:09:09;;;;;;;3.83;3.15;;;;;;;;;;5091327;28;20036;-65
2023/09/04 03:11:35;;;;;;;4.78;3.03;;;;;;;;;;5089949;28;20544;-65
2023/09/04 03:14:01;;;;;;;3.72;2.90;;;;;;;;;;5091560;28;20043;-65
2023/09/04 03:16:28;;;;;;;5.10;3.15;;;;;;;;;;5091490;28;20044;-65
2023/09/04 03:18:54;;;;;;;3.78;3.13;;;;;;;;;;5087227;28;20414;-65
2023/09/04 03:21:20;;;;;;;3.03;2.72;;;;;;;;;;5069971;28;20116;-65
2023/09/04 03:23:47;;;;;;;3.55;2.97;;;;;;;;;;5080335;28;20119;-65
2023/09/04 03:26:14;;;;;;;3.13;2.67;;;;;;;;;;5079055;28;20051;-65
2023/09/04 03:28:40;;;;;;;3.13;2.70;;;;;;;;;;5086863;28;20036;-65
2023/09/04 03:31:11;;;;;;;3.05;2.75;;;;;;;;;;5089259;28;20574;-65
2023/09/04 03:33:37;;;;;;;3.33;2.70;;;;;;;;;;5090921;28;20478;-65
2023/09/04 03:36:04;;;;;;;3.30;3.00;;;;;;;;;;5090556;28;20055;-65
2023/09/04 03:38:30;;;;;;;4.55;3.60;;;;;;;;;;5090668;28;20108;-65
2023/09/04 03:40:56;;;;;;;4.30;3.13;;;;;;;;;;5090438;28;20044;-65
2023/09/04 03:43:22;;;;;;;4.32;3.63;;;;;;;;;;5091285;28;20052;-65
2023/09/04 03:45:48;;;;;;;5.63;3.10;;;;;;;;;;5089098;28;20047;-65
2023/09/04 03:48:13;;;;;;;3.90;3.50;;;;;;;;;;5090044;28;20484;-65
2023/09/04 03:50:40;;;;;;;3.75;3.10;;;;;;;;;;5090856;28;20398;-65
2023/09/04 03:53:06;;;;;;;5.22;2.83;;;;;;;;;;5090599;28;20044;-65
2023/09/04 03:55:32;;;;;;;4.13;3.08;;;;;;;;;;5090440;28;20075;-65
2023/09/04 03:57:58;;;;;;;3.85;3.22;;;;;;;;;;5090661;28;20446;-65
2023/09/04 04:00:24;;;;;;;4.03;2.80;;;;;;;;;;5090590;28;20048;-65
2023/09/04 04:02:51;;;;;;;5.22;3.47;;;;;;;;;;5088562;28;20040;-65
2023/09/04 04:05:18;;;;;;;4.55;3.90;;;;;;;;;;5090839;28;20642;-65
2023/09/04 04:07:44;;;;;;;5.95;3.75;;;;;;;;;;5072634;28;20054;-65
2023/09/04 04:10:10;;;;;;;5.63;4.60;;;;;;;;;;5089153;28;20043;-65
2023/09/04 04:12:36;;;;;;;7.47;4.93;;;;;;;;;;5090553;28;20127;-65
2023/09/04 04:15:05;;;;;;;6.45;4.80;;;;;;;;;;5089270;28;20055;-65
2023/09/04 04:17:32;;;;;;;7.57;5.43;;;;;;;;;;5089799;28;20511;-65
2023/09/04 04:19:58;;;;;;;7.35;4.95;;;;;;;;;;5090722;28;20040;-65
2023/09/04 04:22:24;;;;;;;7.18;5.15;;;;;;;;;;5090013;28;20040;-65
2023/09/04 04:24:50;;;;;;;9.30;5.40;;;;;;;;;;5087515;28;20073;-65
2023/09/04 04:27:17;;;;;;;6.13;5.45;;;;;;;;;;5070092;28;20045;-65
2023/09/04 04:29:43;;;;;;;6.03;5.15;;;;;;;;;;5076716;28;20058;-65
2023/09/04 04:32:10;;;;;;;5.43;4.82;;;;;;;;;;5090074;28;20040;-65
2023/09/04 04:34:36;;;;;;;5.65;4.90;;;;;;;;;;5090081;28;20072;-65
2023/09/04 04:37:02;;;;;;;5.57;4.90;;;;;;;;;;5090591;28;20037;-65
2023/09/04 04:39:28;;;;;;;8.10;5.20;;;;;;;;;;5089330;28;20164;-65
2023/09/04 04:41:54;;;;;;;5.82;4.78;;;;;;;;;;5091424;28;20267;-65
2023/09/04 04:44:20;;;;;;;6.10;5.25;;;;;;;;;;5090794;28;20036;-65
2023/09/04 04:46:49;;;;;;;7.30;5.18;;;;;;;;;;5089152;28;20051;-65
2023/09/04 04:49:17;;;;;;;9.07;5.10;;;;;;;;;;5090951;28;20052;-65
2023/09/04 04:51:44;;;;;;;6.63;4.80;;;;;;;;;;5090556;28;20043;-65
2023/09/04 04:54:10;;;;;;;6.65;5.25;;;;;;;;;;5069662;28;20127;-65
2023/09/04 04:56:36;;;;;;;6.90;4.55;;;;;;;;;;5080101;28;20418;-65
2023/09/04 04:59:02;;;;;;;6.25;5.07;;;;;;;;;;5091207;28;20036;-65
2023/09/04 05:01:28;;;;;;;5.30;4.70;;;;;;;;;;5090554;28;20430;-65
2023/09/04 05:03:54;;;;;;;6.25;4.80;;;;;;;;;;5091472;28;20048;-65
2023/09/04 05:06:20;;;;;;;5.55;4.50;;;;;;;;;;5091077;28;20390;-65
2023/09/04 05:08:46;;;;;;;8.48;4.50;;;;;;;;;;5089192;28;20051;-65
2023/09/04 05:11:12;;;;;;;5.47;4.15;;;;;;;;;;5091234;28;20044;-65
2023/09/04 05:13:38;;;;;;;5.20;4.70;;;;;;;;;;5090888;28;20039;-65
2023/09/04 05:16:05;;;;;;;5.57;4.57;;;;;;;;;;5091004;28;20256;-65
2023/09/04 05:18:31;;;;;;;6.47;5.00;;;;;;;;;;5089795;28;20115;-65
2023/09/04 05:20:58;;;;;;;5.38;4.60;;;;;;;;;;5090920;28;20040;-65
2023/09/04 05:23:24;;;;;;;6.40;4.82;;;;;;;;;;5089260;28;20058;-65
2023/09/04 05:25:51;;;;;;;8.88;4.32;;;;;;;;;;5082254;28;20094;-65
2023/09/04 05:28:17;;;;;;;5.75;4.47;;;;;;;;;;5085920;28;20122;-65
2023/09/04 05:30:43;;;;;;;4.80;4.03;;;;;;;;;;5090260;28;20089;-65
2023/09/04 05:33:09;;;;;;;5.40;3.92;;;;;;;;;;5089277;28;20048;-65
2023/09/04 05:35:35;;;;;;;5.13;4.07;;;;;;;;;;5089256;28;20147;-65
2023/09/04 05:38:01;;;;;;;6.30;4.20;;;;;;;;;;5090853;28;20051;-65
2023/09/04 05:40:27;;;;;;;6.63;4.97;;;;;;;;;;5090657;28;20753;-65
2023/09/04 05:42:53;;;;;;;7.68;4.57;;;;;;;;;;5089818;28;20036;-65
2023/09/04 05:45:22;;;;;;;7.60;4.88;;;;;;;;;;5090368;28;20047;-65
2023/09/04 05:47:48;;;;;;;6.43;5.70;;;;;;;;;;5093745;28;20036;-65
2023/09/04 05:50:14;;;;;;;8.88;6.05;;;;;;;;;;5094423;28;20089;-65
2023/09/04 05:52:40;;;;;;;9.35;7.10;;;;;;;;;;5086967;28;20041;-65
2023/09/04 05:55:07;;;;;;;10.52;6.90;;;;;;;;;;5090484;28;20465;-65
2023/09/04 05:57:33;;;;;;;8.13;7.18;;;;;;;;;;5093373;28;20040;-65
2023/09/04 05:59:59;;;;;;;8.77;7.57;;;;;;;;;;5093860;28;20040;-65
2023/09/04 06:02:26;;;;;;;11.77;8.32;;;;;;;;;;5094056;28;20069;-65
2023/09/04 06:04:53;;;;;;;11.75;7.68;;;;;;;;;;5093043;28;20075;-65
2023/09/04 06:07:19;;;;;;;9.98;8.00;;;;;;;;;;5093688;28;20047;-65
2023/09/04 06:09:45;;;;;;;9.93;8.65;;;;;;;;;;5094130;28;20048;-65
2023/09/04 06:12:11;;;;;;;14.70;8.88;;;;;;;;;;5092205;28;20161;-65
2023/09/04 06:14:40;;;;;;;12.18;9.00;;;;;;;;;;5092371;28;20054;-65
2023/09/04 06:17:06;;;;;;;11.77;9.05;;;;;;;;;;5093978;28;20487;-65
2023/09/04 06:19:32;;;;;;;13.25;8.85;;;;;;;;;;5094264;28;20505;-65
2023/09/04 06:21:58;;;;;;;11.07;9.00;;;;;;;;;;5093357;28;20040;-65
2023/09/04 06:24:25;;;;;;;12.88;9.52;;;;;;;;;;5092133;28;20054;-64
2023/09/04 06:26:51;;;;;;;13.35;9.00;;;;;;;;;;5082684;28;20360;-64
2023/09/04 06:29:18;;;;;;;11.20;8.82;;;;;;;;;;5092775;28;20086;-65
2023/09/04 06:31:44;;;;;;;10.35;9.25;;;;;;;;;;5093178;28;20050;-66
2023/09/04 06:34:11;;;;;;;13.90;10.27;;;;;;;;;;5091113;28;20471;-65
2023/09/04 06:36:37;;;;;;;10.38;9.27;;;;;;;;;;5092724;28;20143;-66
2023/09/04 06:39:03;;;;;;;14.07;10.07;;;;;;;;;;5092494;28;20077;-64
2023/09/04 06:41:30;;;;;;;12.68;10.15;;;;;;;;;;5093369;28;20040;-65
2023/09/04 06:43:56;;;;;;;16.05;11.48;;;;;;;;;;5076457;28;20079;-65
2023/09/04 06:46:22;;;;;;;12.27;10.18;;;;;;;;;;5074946;28;20051;-64
2023/09/04 06:48:48;;;;;;;13.98;11.30;;;;;;;;;;5092013;28;20067;-65
2023/09/04 06:51:15;;;;;;;17.17;11.57;;;;;;;;;;5091516;28;20599;-65
2023/09/04 06:53:41;;;;;;;13.50;10.55;;;;;;;;;;5071421;28;20083;-65
2023/09/04 06:56:10;;;;;;;15.13;11.35;;;;;;;;;;5089481;28;20089;-64
2023/09/04 06:58:36;;;;;;;14.98;11.55;;;;;;;;;;5091519;28;20097;-65
2023/09/04 07:01:03;;;;;;;13.52;11.32;;;;;;;;;;5083848;28;20033;-65
2023/09/04 07:03:29;;;;;;;14.38;11.23;;;;;;;;;;5090609;28;20043;-65
2023/09/04 07:05:55;;;;;;;15.85;12.85;;;;;;;;;;5088521;28;20051;-64
2023/09/04 07:08:21;;;;;;;16.05;12.10;;;;;;;;;;5091765;28;20043;-64
2023/09/04 07:10:48;;;;;;;20.55;12.75;;;;;;;;;;5091357;28;20669;-65
2023/09/04 07:13:14;;;;;;;16.00;11.90;;;;;;;;;;5085967;28;20150;-66
2023/09/04 07:15:40;;;;;;;15.25;11.90;;;;;;;;;;5078803;28;20053;-67
2023/09/04 07:18:08;;;;;;;17.67;12.63;;;;;;;;;;5091408;28;20036;-64
2023/09/04 07:20:34;;;;;;;17.73;12.18;;;;;;;;;;5091082;28;20044;-66
2023/09/04 07:23:00;;;;;;;16.92;13.32;;;;;;;;;;5091342;28;20665;-65
2023/09/04 07:25:26;;;;;;;14.10;12.13;;;;;;;;;;5085664;28;20079;-65
2023/09/04 07:27:52;;;;;;;16.35;13.43;;;;;;;;;;5066188;28;20096;-66
2023/09/04 07:30:18;;;;;;;15.43;11.57;;;;;;;;;;5091201;28;20482;-66
2023/09/04 07:32:44;;;;;;;16.80;13.18;;;;;;;;;;5090825;28;20035;-67
2023/09/04 07:35:10;;;;;;;14.48;11.68;;;;;;;;;;5089012;28;20598;-67
2023/09/04 07:37:37;;;;;;;14.25;11.13;;;;;;;;;;5074969;28;20043;-67
2023/09/04 07:40:05;;;;;;;16.35;11.20;;;;;;;;;;5091249;28;20406;-66
2023/09/04 07:42:32;;;;;;;13.52;10.23;;;;;;;;;;5077250;28;20036;-65
2023/09/04 07:44:58;;;;;;;11.75;10.18;;;;;;;;;;5076228;28;20040;-65
2023/09/04 07:47:24;;;;;;;12.93;9.73;;;;;;;;;;5079959;28;20044;-64
2023/09/04 07:49:55;;;;;;;12.05;9.98;;;;;;;;;;5090025;28;20399;-65
2023/09/04 07:52:21;;;;;;;12.30;9.68;;;;;;;;;;5084924;28;20140;-66
2023/09/04 07:54:49;;;;;;;9.88;8.70;;;;;;;;;;5079498;28;20056;-64
2023/09/04 07:57:16;;;;;;;10.80;8.57;;;;;;;;;;5090189;28;20459;-65
2023/09/04 07:59:42;;;;;;;10.05;8.25;;;;;;;;;;5088414;28;20335;-65
2023/09/04 08:02:08;;;;;;;10.00;7.40;;;;;;;;;;5087694;28;20375;-64
2023/09/04 08:04:34;;;;;;;9.27;7.30;;;;;;;;;;5087364;28;20052;-64
2023/09/04 08:07:00;;;;;;;8.40;7.57;;;;;;;;;;5088412;28;20123;-64
2023/09/04 08:09:26;;;;;;;9.18;7.05;;;;;;;;;;5087544;28;20463;-65
2023/09/04 08:11:52;;;;;;;8.50;6.35;;;;;;;;;;5089144;28;20050;-65
2023/09/04 08:14:18;;;;;;;9.88;8.85;;;;;;;;;;5083891;28;20040;-65
2023/09/04 08:16:44;;;;;;;13.77;10.35;;;;;;;;;;5078717;28;20036;-65
2023/09/04 08:19:10;;;;;;;9.65;8.65;;;;;;;;;;5081514;28;20435;-64
2023/09/04 08:21:36;;;;;;;9.73;7.13;;;;;;;;;;5083585;28;20047;-65
2023/09/04 08:24:02;;;;;;;8.95;7.65;;;;;;;;;;5086083;28;20119;-65
2023/09/04 08:26:29;;;;;;;8.27;6.45;;;;;;;;;;5084979;28;20050;-65
2023/09/04 08:28:55;;;;;;;8.65;6.75;;;;;;;;;;5087786;28;20071;-66
2023/09/04 08:31:21;;;;;;;9.05;6.45;;;;;;;;;;5082885;28;20052;-65
2023/09/04 08:33:47;;;;;;;7.38;6.28;;;;;;;;;;5086796;28;20048;-66
2023/09/04 08:36:13;;;;;;;7.18;6.35;;;;;;;;;;5086044;28;20043;-65
2023/09/04 08:38:39;;;;;;;9.52;6.82;;;;;;;;;;5086209;28;20474;-66
2023/09/04 08:41:08;;;;;;;11.45;6.88;;;;;;;;;;5080013;28;20044;-63
2023/09/04 08:43:35;;;;;;;9.52;6.40;;;;;;;;;;5087076;28;20032;-66
2023/09/04 08:46:03;;;;;;;6.70;5.32;;;;;;;;;;5081397;28;20040;-65
2023/09/04 08:48:32;;;;;;;7.63;5.63;;;;;;;;;;5088087;28;20075;-65
2023/09/04 08:50:59;;;;;;;5.20;4.70;;;;;;;;;;5082190;28;20051;-65
2023/09/04 08:53:26;;;;;;;7.15;5.43;;;;;;;;;;5076994;28;20044;-64
2023/09/04 08:55:53;;;;;;;6.28;5.03;;;;;;;;;;5080353;28;20040;-63
2023/09/04 08:58:20;;;;;;;6.57;5.05;;;;;;;;;;5084155;28;20123;-64
2023/09/04 09:00:47;;;;;;;6.15;5.13;;;;;;;;;;5077355;28;20089;-64
2023/09/04 09:03:13;;;;;;;5.30;4.80;;;;;;;;;;5071236;28;20059;-64
2023/09/04 09:05:39;;;;;;;8.20;4.70;;;;;;;;;;5083941;28;20048;-63
2023/09/04 09:08:05;;;;;;;7.35;5.40;;;;;;;;;;5081921;28;20048;-62
2023/09/04 09:10:32;;;;;;;5.00;4.50;;;;;;;;;;5077399;28;20123;-64
2023/09/04 09:12:58;;;;;;;6.55;4.63;;;;;;;;;;5088151;28;20134;-64
2023/09/04 09:15:24;;;;;;;8.27;4.45;;;;;;;;;;5082818;28;20545;-63
2023/09/04 09:17:54;;;;;;;4.47;3.97;;;;;;;;;;5088222;28;20147;-62
2023/09/04 09:20:33;;;;;;;4.97;3.60;;;;;;;;;;5083176;28;20051;-64
2023/09/04 09:22:59;;;;;;;4.35;3.20;;;;;;;;;;5089811;28;20093;-63
2023/09/04 09:25:25;;;;;;;7.05;3.83;;;;;;;;;;5084771;28;20115;-65
2023/09/04 09:27:51;;;;;;;5.93;3.72;;;;;;;;;;5088403;28;20051;-64
2023/09/04 09:30:17;;;;;;;9.60;3.25;;;;;;;;;;5092198;28;20113;-65
2023/09/04 09:32:43;;;;;;;3.53;3.17;;;;;;;;;;5090968;28;20093;-65
2023/09/04 09:35:10;;;;;;;4.63;3.47;;;;;;;;;;5082612;28;20044;-65
2023/09/04 09:37:36;;;;;;;3.38;3.08;;;;;;;;;;5092502;28;20408;-65
2023/09/04 09:40:05;;;;;;;5.82;3.05;;;;;;;;;;5091674;28;20035;-65
2023/09/04 09:42:31;;;;;;;4.07;2.90;;;;;;;;;;5085735;28;20032;-65
2023/09/04 09:44:57;;;;;;;4.15;3.05;;;;;;;;;;5091980;28;20100;-63
2023/09/04 09:47:23;;;;;;;5.50;2.60;;;;;;;;;;5092752;28;20039;-64
2023/09/04 09:49:50;;;;;;;3.30;2.70;;;;;;;;;;5091579;28;20043;-64
2023/09/04 09:52:16;;;;;;;3.00;2.65;;;;;;;;;;5081954;28;20040;-63
2023/09/04 09:54:43;;;;;;;4.38;3.10;;;;;;;;;;5078616;28;20451;-63
2023/09/04 09:57:11;;;;;;;4.10;2.60;;;;;;;;;;5081375;28;20153;-63
2023/09/04 09:59:38;;;;;;;6.45;2.95;;;;;;;;;;5081357;28;20513;-63
2023/09/04 10:02:05;;;;;;;4.82;2.90;;;;;;;;;;5080382;28;20047;-64
2023/09/04 10:04:32;;;;;;;2.47;2.25;;;;;;;;;;5089291;28;20047;-63
2023/09/04 10:07:02;;;;;;;3.05;2.70;;;;;;;;;;5092524;28;20466;-63
2023/09/04 10:09:29;;;;;;;3.15;2.40;;;;;;;;;;5091761;28;20190;-63
2023/09/04 10:12:06;;;;;;;2.80;2.60;;;;;;;;;;5085676;28;20454;-63
2023/09/04 10:14:44;;;;;;;3.97;2.67;;;;;;;;;;5077181;28;20072;-63
2023/09/04 10:17:21;;;;;;;6.03;2.75;;;;;;;;;;5091488;28;20122;-64
2023/09/04 10:19:49;;;;;;;4.80;2.70;;;;;;;;;;5089271;28;20524;-64
2023/09/04 10:22:24;;;;;;;2.70;2.40;;;;;;;;;;5079955;28;20198;-65
2023/09/04 10:25:04;;;;;;;4.05;2.47;;;;;;;;;;5085359;28;20048;-63
2023/09/04 10:27:32;;;;;;;3.17;2.88;;;;;;;;;;5071987;28;20044;-64
2023/09/04 10:30:04;;;;;;;2.83;2.20;;;;;;;;;;5091176;28;20062;-64
2023/09/04 10:32:30;;;;;;;4.68;2.50;;;;;;;;;;5085574;28;20802;-64
2023/09/04 10:34:57;;;;;;;4.78;2.60;;;;;;;;;;5090194;28;20142;-64
2023/09/04 10:37:26;;;;;;;5.38;2.30;;;;;;;;;;5082925;28;20040;-64
2023/09/04 10:39:52;;;;;;;3.53;2.85;;;;;;;;;;5091225;28;20043;-64
2023/09/04 10:42:18;;;;;;;3.38;2.63;;;;;;;;;;5090772;28;20028;-64
2023/09/04 10:44:49;;;;;;;3.70;2.72;;;;;;;;;;5090184;28;20046;-64
2023/09/04 10:47:16;;;;;;;3.30;2.42;;;;;;;;;;5091677;28;20047;-64
2023/09/04 10:49:42;;;;;;;3.33;2.17;;;;;;;;;;5091099;28;20398;-64
2023/09/04 10:52:09;;;;;;;4.40;2.20;;;;;;;;;;5088229;28;20040;-64
2023/09/04 10:54:35;;;;;;;4.80;2.63;;;;;;;;;;5086246;28;20213;-64
2023/09/04 10:57:05;;;;;;;3.33;2.40;;;;;;;;;;5090828;28;20036;-64
2023/09/04 10:59:31;;;;;;;5.00;2.40;;;;;;;;;;5091263;28;20043;-64
2023/09/04 11:01:57;;;;;;;2.88;2.40;;;;;;;;;;5091710;28;20035;-64
2023/09/04 11:04:32;;;;;;;3.58;2.75;;;;;;;;;;5091031;28;20040;-64
2023/09/04 11:07:16;;;;;;;3.67;2.13;;;;;;;;;;5089973;28;20764;-64
2023/09/04 11:09:42;;;;;;;4.28;2.63;;;;;;;;;;5091368;28;20039;-64
2023/09/04 11:12:12;;;;;;;2.92;2.10;;;;;;;;;;5091441;28;20036;-64
2023/09/04 11:14:48;;;;;;;3.92;2.17;;;;;;;;;;5091168;28;20493;-64
2023/09/04 11:17:17;;;;;;;3.92;2.22;;;;;;;;;;5089830;28;20678;-64
2023/09/04 11:19:43;;;;;;;4.63;2.30;;;;;;;;;;5091819;28;20036;-64
2023/09/04 11:22:22;;;;;;;4.80;2.22;;;;;;;;;;5090854;28;20043;-64
2023/09/04 11:24:51;;;;;;;2.22;2.00;;;;;;;;;;5090349;28;20564;-64
2023/09/04 11:27:17;;;;;;;4.35;2.50;;;;;;;;;;5089420;28;20486;-64
2023/09/04 11:29:43;;;;;;;2.08;1.70;;;;;;;;;;5091658;28;20056;-64
2023/09/04 11:32:09;;;;;;;2.65;1.80;;;;;;;;;;5091187;28;20048;-64
2023/09/04 11:34:35;;;;;;;3.03;2.10;;;;;;;;;;5087680;28;20047;-64
2023/09/04 11:37:01;;;;;;;2.30;2.10;;;;;;;;;;5085552;28;20480;-64
2023/09/04 11:39:28;;;;;;;3.47;2.10;;;;;;;;;;5084772;28;20040;-64
2023/09/04 11:41:54;;;;;;;3.17;1.83;;;;;;;;;;5076659;28;20037;-63
2023/09/04 11:44:21;;;;;;;2.20;1.85;;;;;;;;;;5086984;28;20424;-63
2023/09/04 11:46:48;;;;;;;3.33;1.70;;;;;;;;;;5085704;28;20127;-64
2023/09/04 11:49:15;;;;;;;2.45;1.70;;;;;;;;;;5088144;28;20525;-63
2023/09/04 11:51:44;;;;;;;3.70;1.67;;;;;;;;;;5084022;28;20130;-64
2023/09/04 11:54:10;;;;;;;2.35;1.85;;;;;;;;;;5083759;28;20063;-64
2023/09/04 11:56:36;;;;;;;3.72;1.95;;;;;;;;;;5086948;28;20040;-65
2023/09/04 11:59:04;;;;;;;3.53;2.10;;;;;;;;;;5090174;28;20032;-62
2023/09/04 12:01:30;;;;;;;4.63;1.80;;;;;;;;;;5082711;28;20068;-62
2023/09/04 12:03:56;;;;;;;2.33;1.83;;;;;;;;;;5075410;28;20506;-63
2023/09/04 12:06:28;;;;;;;2.08;1.88;;;;;;;;;;5077838;28;20398;-62
2023/09/04 12:08:54;;;;;;;3.58;1.98;;;;;;;;;;5087219;28;20051;-63
2023/09/04 12:11:21;;;;;;;3.05;1.80;;;;;;;;;;5082191;28;20040;-63
2023/09/04 12:13:47;;;;;;;2.45;2.03;;;;;;;;;;5090686;28;20048;-63
2023/09/04 12:16:17;;;;;;;3.08;1.90;;;;;;;;;;5089863;28;20396;-62
2023/09/04 12:18:43;;;;;;;3.00;2.35;;;;;;;;;;5089868;28;20047;-63
2023/09/04 12:21:09;;;;;;;2.10;1.90;;;;;;;;;;5087662;28;20089;-64
2023/09/04 12:23:39;;;;;;;3.72;1.85;;;;;;;;;;5081915;28;20702;-64
2023/09/04 12:26:06;;;;;;;4.20;1.90;;;;;;;;;;5071519;28;20049;-63
2023/09/04 12:28:31;;;;;;;3.83;2.00;;;;;;;;;;5088783;28;20043;-63
2023/09/04 12:30:58;;;;;;;2.30;2.10;;;;;;;;;;5076543;28;20055;-63
2023/09/04 12:33:30;;;;;;;3.10;2.10;;;;;;;;;;5084577;28;20119;-63
2023/09/04 12:35:59;;;;;;;3.83;1.77;;;;;;;;;;5079477;28;20554;-63
2023/09/04 12:38:25;;;;;;;2.92;1.83;;;;;;;;;;5085896;28;20043;-63
2023/09/04 12:40:51;;;;;;;2.08;1.50;;;;;;;;;;5089315;28;20046;-63
2023/09/04 12:43:17;;;;;;;2.80;1.70;;;;;;;;;;5082887;28;20063;-63
2023/09/04 12:45:43;;;;;;;2.38;1.80;;;;;;;;;;5073548;28;20052;-64
2023/09/04 12:48:15;;;;;;;3.00;2.03;;;;;;;;;;5077512;28;20387;-63
2023/09/04 12:50:42;;;;;;;4.15;1.65;;;;;;;;;;5078808;28;20040;-62
2023/09/04 12:53:08;;;;;;;3.47;1.67;;;;;;;;;;5080238;28;20036;-63
2023/09/04 12:55:34;;;;;;;2.30;1.70;;;;;;;;;;5083222;28;20040;-63
2023/09/04 12:58:01;;;;;;;3.90;2.10;;;;;;;;;;5095347;28;20042;-64
2023/09/04 13:00:27;;;;;;;1.85;1.48;;;;;;;;;;5094291;28;20043;-64
2023/09/04 13:02:54;;;;;;;2.35;1.48;;;;;;;;;;5094664;28;20052;-64
2023/09/04 13:05:20;;;;;;;2.70;1.55;;;;;;;;;;5095017;28;20032;-63
2023/09/04 13:07:46;;;;;;;3.22;1.70;;;;;;;;;;5081158;28;20094;-63
2023/09/04 13:10:12;;;;;;;3.38;1.50;;;;;;;;;;5075129;28;20032;-63
2023/09/04 13:12:39;;;;;;;2.00;1.50;;;;;;;;;;5089829;28;20066;-63
2023/09/04 13:15:05;;;;;;;2.22;1.45;;;;;;;;;;5094496;28;20041;-63
2023/09/04 13:17:31;;;;;;;1.90;1.52;;;;;;;;;;5088176;28;20317;-63
2023/09/04 13:19:57;;;;;;;3.67;1.58;;;;;;;;;;5094797;28;20051;-63
2023/09/04 13:22:23;;;;;;;7.57;1.65;;;;;;;;;;5093894;28;20036;-63
2023/09/04 13:24:50;;;;;;;3.40;1.70;;;;;;;;;;5089343;28;20108;-61
2023/09/04 13:27:16;;;;;;;7.05;1.45;;;;;;;;;;5090902;28;20072;-61
2023/09/04 13:29:44;;;;;;;1.67;1.50;;;;;;;;;;5094189;28;20048;-61
2023/09/04 13:32:12;;;;;;;5.45;1.63;;;;;;;;;;5093668;28;20044;-61
2023/09/04 13:34:38;;;;;;;2.90;1.58;;;;;;;;;;5093357;28;20051;-61
2023/09/04 13:37:04;;;;;;;2.67;1.48;;;;;;;;;;5094847;28;20039;-61
2023/09/04 13:39:30;;;;;;;2.45;1.52;;;;;;;;;;5093575;28;20490;-60
2023/09/04 13:41:56;;;;;;;2.40;1.40;;;;;;;;;;5088867;28;20448;-61
2023/09/04 13:44:24;;;;;;;2.85;1.35;;;;;;;;;;5087583;28;20047;-61
2023/09/04 13:46:50;;;;;;;2.45;1.35;;;;;;;;;;5093534;28;20071;-62
2023/09/04 13:49:16;;;;;;;2.20;1.70;;;;;;;;;;5094316;28;20040;-61
2023/09/04 13:51:42;;;;;;;3.63;1.20;;;;;;;;;;5093751;28;20150;-61
2023/09/04 13:54:10;;;;;;;4.07;1.30;;;;;;;;;;5093267;28;20044;-61
2023/09/04 13:56:39;;;;;;;2.42;1.42;;;;;;;;;;5093278;28;20051;-61
2023/09/04 13:59:07;;;;;;;1.73;1.30;;;;;;;;;;5093953;28;20500;-62
2023/09/04 14:01:33;;;;;;;2.40;1.38;;;;;;;;;;5093501;28;20527;-62
2023/09/04 14:03:59;;;;;;;1.65;1.40;;;;;;;;;;5093440;28;20075;-63
2023/09/04 14:06:25;;;;;;;3.17;1.00;;;;;;;;;;5093824;28;20036;-61
2023/09/04 14:08:51;;;;;;;1.55;1.38;;;;;;;;;;5092229;28;20136;-62
2023/09/04 14:11:18;;;;;;;1.48;1.00;;;;;;;;;;5093261;28;20054;-60
2023/09/04 14:13:44;;;;;;;1.38;1.27;;;;;;;;;;5093992;28;20040;-61
2023/09/04 14:16:10;;;;;;;5.72;1.33;;;;;;;;;;5086267;28;20040;-62
2023/09/04 14:18:36;;;;;;;2.25;1.15;;;;;;;;;;5075060;28;20123;-61
2023/09/04 14:21:03;;;;;;;1.88;1.38;;;;;;;;;;5093365;28;20117;-61
2023/09/04 14:23:29;;;;;;;1.92;1.33;;;;;;;;;;5092685;28;20044;-62
2023/09/04 14:25:55;;;;;;;2.55;1.20;;;;;;;;;;5093849;28;20032;-60
2023/09/04 14:28:21;;;;;;;1.98;1.40;;;;;;;;;;5092818;28;20074;-61
2023/09/04 14:30:47;;;;;;;1.48;1.20;;;;;;;;;;5092977;28;20052;-62
2023/09/04 14:33:13;;;;;;;2.53;1.63;;;;;;;;;;5092843;28;20455;-62
2023/09/04 14:35:39;;;;;;;1.58;1.00;;;;;;;;;;5092688;28;20044;-62
2023/09/04 14:38:06;;;;;;;2.35;1.38;;;;;;;;;;5092771;28;20379;-60